sensor_id;sensor_type;location;lat;lon;timestamp;P1;durP1;ratioP1;P2;durP2;ratioP2
28904;SDS011;60848;53.884;11.446;2022-12-07T00:09:40;11.27;;;6.70;;
28904;SDS011;60848;53.884;11.446;2022-12-07T00:12:10;10.15;;;6.28;;
28904;SDS011;60848;53.884;11.446;2022-12-07T00:14:38;13.10;;;7.60;;
28904;SDS011;60848;53.884;11.446;2022-12-07T00:17:07;12.13;;;6.93;;
28904;SDS011;60848;53.884;11.446;2022-12-07T00:19:35;12.05;;;7.45;;
28904;SDS011;60848;53.884;11.446;2022-12-07T00:22:03;13.43;;;7.75;;
28904;SDS011;60848;53.884;11.446;2022-12-07T00:24:32;12.77;;;7.88;;
28904;SDS011;60848;53.884;11.446;2022-12-07T00:27:00;15.10;;;8.38;;
28904;SDS011;60848;53.884;11.446;2022-12-07T00:29:33;14.63;;;8.43;;
28904;SDS011;60848;53.884;11.446;2022-12-07T00:34:31;14.40;;;8.23;;
28904;SDS011;60848;53.884;11.446;2022-12-07T00:37:00;14.30;;;8.95;;
28904;SDS011;60848;53.884;11.446;2022-12-07T00:39:28;15.98;;;8.95;;
28904;SDS011;60848;53.884;11.446;2022-12-07T00:41:57;16.25;;;9.18;;
28904;SDS011;60848;53.884;11.446;2022-12-07T00:44:25;15.30;;;9.38;;
28904;SDS011;60848;53.884;11.446;2022-12-07T00:46:55;18.33;;;9.57;;
28904;SDS011;60848;53.884;11.446;2022-12-07T00:49:24;17.10;;;9.82;;
28904;SDS011;60848;53.884;11.446;2022-12-07T00:51:52;19.35;;;9.73;;
28904;SDS011;60848;53.884;11.446;2022-12-07T00:54:23;17.45;;;9.40;;
28904;SDS011;60848;53.884;11.446;2022-12-07T00:56:51;17.27;;;9.68;;
28904;SDS011;60848;53.884;11.446;2022-12-07T00:59:22;18.55;;;9.75;;
28904;SDS011;60848;53.884;11.446;2022-12-07T01:01:58;20.90;;;10.98;;
28904;SDS011;60848;53.884;11.446;2022-12-07T01:04:29;17.38;;;9.93;;
28904;SDS011;60848;53.884;11.446;2022-12-07T01:06:58;19.23;;;10.80;;
28904;SDS011;60848;53.884;11.446;2022-12-07T01:09:26;18.08;;;10.43;;
28904;SDS011;60848;53.884;11.446;2022-12-07T01:11:54;17.58;;;9.38;;
28904;SDS011;60848;53.884;11.446;2022-12-07T01:14:23;19.45;;;10.98;;
28904;SDS011;60848;53.884;11.446;2022-12-07T01:16:51;20.60;;;10.77;;
28904;SDS011;60848;53.884;11.446;2022-12-07T01:19:21;20.15;;;11.48;;
28904;SDS011;60848;53.884;11.446;2022-12-07T01:21:49;18.50;;;10.38;;
28904;SDS011;60848;53.884;11.446;2022-12-07T01:24:18;19.80;;;11.07;;
28904;SDS011;60848;53.884;11.446;2022-12-07T01:26:48;20.02;;;11.60;;
28904;SDS011;60848;53.884;11.446;2022-12-07T01:29:19;18.27;;;11.25;;
28904;SDS011;60848;53.884;11.446;2022-12-07T01:31:48;19.48;;;11.23;;
28904;SDS011;60848;53.884;11.446;2022-12-07T01:34:16;22.27;;;11.57;;
28904;SDS011;60848;53.884;11.446;2022-12-07T01:36:46;19.90;;;11.43;;
28904;SDS011;60848;53.884;11.446;2022-12-07T01:39:15;19.80;;;10.95;;
28904;SDS011;60848;53.884;11.446;2022-12-07T01:41:43;22.30;;;11.95;;
28904;SDS011;60848;53.884;11.446;2022-12-07T01:44:16;21.92;;;12.48;;
28904;SDS011;60848;53.884;11.446;2022-12-07T01:46:47;28.45;;;18.10;;
28904;SDS011;60848;53.884;11.446;2022-12-07T01:49:24;28.75;;;18.35;;
28904;SDS011;60848;53.884;11.446;2022-12-07T01:52:06;30.92;;;19.83;;
28904;SDS011;60848;53.884;11.446;2022-12-07T01:54:43;29.10;;;18.50;;
28904;SDS011;60848;53.884;11.446;2022-12-07T01:57:13;32.17;;;20.70;;
28904;SDS011;60848;53.884;11.446;2022-12-07T01:59:44;33.08;;;21.13;;
28904;SDS011;60848;53.884;11.446;2022-12-07T02:02:18;34.03;;;21.40;;
28904;SDS011;60848;53.884;11.446;2022-12-07T02:04:51;35.60;;;22.05;;
28904;SDS011;60848;53.884;11.446;2022-12-07T02:07:21;34.75;;;22.50;;
28904;SDS011;60848;53.884;11.446;2022-12-07T02:09:51;35.65;;;22.73;;
28904;SDS011;60848;53.884;11.446;2022-12-07T02:12:19;36.30;;;23.00;;
28904;SDS011;60848;53.884;11.446;2022-12-07T02:14:49;36.92;;;24.35;;
28904;SDS011;60848;53.884;11.446;2022-12-07T02:17:20;36.55;;;23.90;;
28904;SDS011;60848;53.884;11.446;2022-12-07T02:22:54;39.40;;;24.70;;
28904;SDS011;60848;53.884;11.446;2022-12-07T02:25:44;39.13;;;24.63;;
28904;SDS011;60848;53.884;11.446;2022-12-07T02:28:26;43.10;;;26.33;;
28904;SDS011;60848;53.884;11.446;2022-12-07T02:31:01;38.92;;;26.15;;
28904;SDS011;60848;53.884;11.446;2022-12-07T02:33:37;42.65;;;25.92;;
28904;SDS011;60848;53.884;11.446;2022-12-07T02:36:12;40.72;;;26.60;;
28904;SDS011;60848;53.884;11.446;2022-12-07T02:38:47;43.33;;;26.23;;
28904;SDS011;60848;53.884;11.446;2022-12-07T02:41:19;41.55;;;26.55;;
28904;SDS011;60848;53.884;11.446;2022-12-07T02:43:54;41.30;;;26.77;;
28904;SDS011;60848;53.884;11.446;2022-12-07T02:46:27;40.73;;;26.80;;
28904;SDS011;60848;53.884;11.446;2022-12-07T02:48:58;41.25;;;26.85;;
28904;SDS011;60848;53.884;11.446;2022-12-07T02:51:30;41.17;;;26.40;;
28904;SDS011;60848;53.884;11.446;2022-12-07T02:53:59;40.67;;;26.35;;
28904;SDS011;60848;53.884;11.446;2022-12-07T02:56:32;41.60;;;26.02;;
28904;SDS011;60848;53.884;11.446;2022-12-07T02:59:12;38.83;;;25.33;;
28904;SDS011;60848;53.884;11.446;2022-12-07T03:01:50;39.75;;;25.63;;
28904;SDS011;60848;53.884;11.446;2022-12-07T03:04:32;41.65;;;25.48;;
28904;SDS011;60848;53.884;11.446;2022-12-07T03:07:20;38.58;;;24.52;;
28904;SDS011;60848;53.884;11.446;2022-12-07T03:09:57;37.33;;;24.60;;
28904;SDS011;60848;53.884;11.446;2022-12-07T03:12:31;37.88;;;24.13;;
28904;SDS011;60848;53.884;11.446;2022-12-07T03:15:05;37.87;;;23.80;;
28904;SDS011;60848;53.884;11.446;2022-12-07T03:17:41;41.97;;;25.45;;
28904;SDS011;60848;53.884;11.446;2022-12-07T03:20:12;40.22;;;24.20;;
28904;SDS011;60848;53.884;11.446;2022-12-07T03:22:45;39.63;;;23.63;;
28904;SDS011;60848;53.884;11.446;2022-12-07T03:25:15;39.97;;;23.90;;
28904;SDS011;60848;53.884;11.446;2022-12-07T03:27:45;41.67;;;23.73;;
28904;SDS011;60848;53.884;11.446;2022-12-07T03:30:19;37.55;;;23.65;;
28904;SDS011;60848;53.884;11.446;2022-12-07T03:32:52;39.88;;;23.70;;
28904;SDS011;60848;53.884;11.446;2022-12-07T03:35:26;37.85;;;22.98;;
28904;SDS011;60848;53.884;11.446;2022-12-07T03:37:59;41.28;;;24.20;;
28904;SDS011;60848;53.884;11.446;2022-12-07T03:40:36;39.03;;;23.38;;
28904;SDS011;60848;53.884;11.446;2022-12-07T03:43:08;36.35;;;22.20;;
28904;SDS011;60848;53.884;11.446;2022-12-07T03:45:38;36.70;;;22.10;;
28904;SDS011;60848;53.884;11.446;2022-12-07T03:48:12;33.92;;;20.70;;
28904;SDS011;60848;53.884;11.446;2022-12-07T03:50:50;32.20;;;19.10;;
28904;SDS011;60848;53.884;11.446;2022-12-07T03:53:24;30.20;;;18.77;;
28904;SDS011;60848;53.884;11.446;2022-12-07T03:56:01;27.63;;;17.35;;
28904;SDS011;60848;53.884;11.446;2022-12-07T03:58:31;26.92;;;17.25;;
28904;SDS011;60848;53.884;11.446;2022-12-07T04:01:00;24.98;;;16.35;;
28904;SDS011;60848;53.884;11.446;2022-12-07T04:03:30;26.33;;;16.30;;
28904;SDS011;60848;53.884;11.446;2022-12-07T04:05:59;24.15;;;16.17;;
28904;SDS011;60848;53.884;11.446;2022-12-07T04:08:27;24.67;;;15.77;;
28904;SDS011;60848;53.884;11.446;2022-12-07T04:10:56;23.23;;;15.52;;
28904;SDS011;60848;53.884;11.446;2022-12-07T04:13:24;21.95;;;14.43;;
28904;SDS011;60848;53.884;11.446;2022-12-07T04:15:52;20.42;;;13.35;;
28904;SDS011;60848;53.884;11.446;2022-12-07T04:18:21;21.43;;;14.60;;
28904;SDS011;60848;53.884;11.446;2022-12-07T04:20:51;19.45;;;13.95;;
28904;SDS011;60848;53.884;11.446;2022-12-07T04:23:19;21.33;;;14.13;;
28904;SDS011;60848;53.884;11.446;2022-12-07T04:25:48;20.42;;;13.90;;
28904;SDS011;60848;53.884;11.446;2022-12-07T04:28:16;20.48;;;14.18;;
28904;SDS011;60848;53.884;11.446;2022-12-07T04:30:45;21.92;;;14.25;;
28904;SDS011;60848;53.884;11.446;2022-12-07T04:33:13;22.60;;;14.75;;
28904;SDS011;60848;53.884;11.446;2022-12-07T04:35:42;25.40;;;15.60;;
28904;SDS011;60848;53.884;11.446;2022-12-07T04:38:12;25.50;;;15.53;;
28904;SDS011;60848;53.884;11.446;2022-12-07T04:40:40;25.92;;;15.68;;
28904;SDS011;60848;53.884;11.446;2022-12-07T04:43:09;23.05;;;15.35;;
28904;SDS011;60848;53.884;11.446;2022-12-07T04:45:37;27.27;;;16.53;;
28904;SDS011;60848;53.884;11.446;2022-12-07T04:48:05;24.63;;;16.50;;
28904;SDS011;60848;53.884;11.446;2022-12-07T04:50:35;25.48;;;16.65;;
28904;SDS011;60848;53.884;11.446;2022-12-07T04:53:12;28.90;;;17.63;;
28904;SDS011;60848;53.884;11.446;2022-12-07T04:55:41;29.58;;;17.77;;
28904;SDS011;60848;53.884;11.446;2022-12-07T04:58:09;28.15;;;17.80;;
28904;SDS011;60848;53.884;11.446;2022-12-07T05:00:38;27.90;;;17.27;;
28904;SDS011;60848;53.884;11.446;2022-12-07T05:03:07;27.63;;;17.20;;
28904;SDS011;60848;53.884;11.446;2022-12-07T05:05:35;24.00;;;16.80;;
28904;SDS011;60848;53.884;11.446;2022-12-07T05:08:07;26.73;;;16.85;;
28904;SDS011;60848;53.884;11.446;2022-12-07T05:10:37;25.27;;;16.40;;
28904;SDS011;60848;53.884;11.446;2022-12-07T05:13:05;25.80;;;17.02;;
28904;SDS011;60848;53.884;11.446;2022-12-07T05:15:34;25.98;;;17.42;;
28904;SDS011;60848;53.884;11.446;2022-12-07T05:18:02;26.52;;;17.33;;
28904;SDS011;60848;53.884;11.446;2022-12-07T05:20:31;25.65;;;16.95;;
28904;SDS011;60848;53.884;11.446;2022-12-07T05:23:07;26.00;;;16.67;;
28904;SDS011;60848;53.884;11.446;2022-12-07T05:25:37;25.85;;;16.83;;
28904;SDS011;60848;53.884;11.446;2022-12-07T05:28:06;23.53;;;15.37;;
28904;SDS011;60848;53.884;11.446;2022-12-07T05:30:34;19.23;;;12.40;;
28904;SDS011;60848;53.884;11.446;2022-12-07T05:33:03;13.73;;;9.50;;
28904;SDS011;60848;53.884;11.446;2022-12-07T05:35:31;9.50;;;6.45;;
28904;SDS011;60848;53.884;11.446;2022-12-07T05:38:00;8.85;;;6.03;;
28904;SDS011;60848;53.884;11.446;2022-12-07T05:40:28;8.43;;;5.82;;
28904;SDS011;60848;53.884;11.446;2022-12-07T05:42:58;8.10;;;5.40;;
28904;SDS011;60848;53.884;11.446;2022-12-07T05:45:32;7.15;;;4.68;;
28904;SDS011;60848;53.884;11.446;2022-12-07T05:48:01;5.95;;;4.30;;
28904;SDS011;60848;53.884;11.446;2022-12-07T05:50:30;6.57;;;4.30;;
28904;SDS011;60848;53.884;11.446;2022-12-07T05:53:01;8.20;;;4.80;;
28904;SDS011;60848;53.884;11.446;2022-12-07T05:55:31;8.18;;;5.10;;
28904;SDS011;60848;53.884;11.446;2022-12-07T05:58:01;14.25;;;9.40;;
28904;SDS011;60848;53.884;11.446;2022-12-07T06:00:49;10.18;;;6.75;;
28904;SDS011;60848;53.884;11.446;2022-12-07T06:03:17;7.82;;;5.72;;
28904;SDS011;60848;53.884;11.446;2022-12-07T06:05:46;7.25;;;5.75;;
28904;SDS011;60848;53.884;11.446;2022-12-07T06:08:15;15.95;;;11.02;;
28904;SDS011;60848;53.884;11.446;2022-12-07T06:10:43;33.70;;;23.08;;
28904;SDS011;60848;53.884;11.446;2022-12-07T06:13:13;9.90;;;7.18;;
28904;SDS011;60848;53.884;11.446;2022-12-07T06:15:40;8.05;;;5.05;;
28904;SDS011;60848;53.884;11.446;2022-12-07T06:18:09;7.30;;;5.37;;
28904;SDS011;60848;53.884;11.446;2022-12-07T06:20:37;7.05;;;4.72;;
28904;SDS011;60848;53.884;11.446;2022-12-07T06:23:06;6.28;;;4.45;;
28904;SDS011;60848;53.884;11.446;2022-12-07T06:25:34;7.72;;;4.88;;
28904;SDS011;60848;53.884;11.446;2022-12-07T06:28:02;6.97;;;4.40;;
28904;SDS011;60848;53.884;11.446;2022-12-07T06:30:32;6.47;;;4.50;;
28904;SDS011;60848;53.884;11.446;2022-12-07T06:33:00;5.80;;;4.00;;
28904;SDS011;60848;53.884;11.446;2022-12-07T06:35:29;6.28;;;3.78;;
28904;SDS011;60848;53.884;11.446;2022-12-07T06:37:59;5.40;;;3.43;;
28904;SDS011;60848;53.884;11.446;2022-12-07T06:40:28;5.13;;;3.50;;
28904;SDS011;60848;53.884;11.446;2022-12-07T06:42:56;5.82;;;3.60;;
28904;SDS011;60848;53.884;11.446;2022-12-07T06:45:27;5.10;;;3.63;;
28904;SDS011;60848;53.884;11.446;2022-12-07T06:47:59;5.03;;;3.45;;
28904;SDS011;60848;53.884;11.446;2022-12-07T06:50:28;7.63;;;4.22;;
28904;SDS011;60848;53.884;11.446;2022-12-07T06:52:56;6.28;;;4.20;;
28904;SDS011;60848;53.884;11.446;2022-12-07T06:55:27;6.93;;;4.70;;
28904;SDS011;60848;53.884;11.446;2022-12-07T06:57:58;6.90;;;5.23;;
28904;SDS011;60848;53.884;11.446;2022-12-07T07:00:30;7.85;;;5.47;;
28904;SDS011;60848;53.884;11.446;2022-12-07T07:03:00;10.07;;;6.82;;
28904;SDS011;60848;53.884;11.446;2022-12-07T07:05:29;13.18;;;8.68;;
28904;SDS011;60848;53.884;11.446;2022-12-07T07:07:57;13.43;;;9.30;;
28904;SDS011;60848;53.884;11.446;2022-12-07T07:10:46;14.45;;;10.57;;
28904;SDS011;60848;53.884;11.446;2022-12-07T07:13:14;15.48;;;11.52;;
28904;SDS011;60848;53.884;11.446;2022-12-07T07:15:42;17.33;;;12.10;;
28904;SDS011;60848;53.884;11.446;2022-12-07T07:18:12;33.33;;;24.30;;
28904;SDS011;60848;53.884;11.446;2022-12-07T07:20:41;19.23;;;13.35;;
28904;SDS011;60848;53.884;11.446;2022-12-07T07:23:09;17.17;;;12.57;;
28904;SDS011;60848;53.884;11.446;2022-12-07T07:25:38;17.73;;;12.23;;
28904;SDS011;60848;53.884;11.446;2022-12-07T07:28:06;16.75;;;12.07;;
28904;SDS011;60848;53.884;11.446;2022-12-07T07:30:35;15.75;;;12.23;;
28904;SDS011;60848;53.884;11.446;2022-12-07T07:33:06;15.65;;;9.15;;
28904;SDS011;60848;53.884;11.446;2022-12-07T08:55:21;14.88;;;8.25;;
28904;SDS011;60848;53.884;11.446;2022-12-07T09:45:04;15.70;;;5.85;;
28904;SDS011;60848;53.884;11.446;2022-12-07T09:47:35;10.35;;;5.72;;
28904;SDS011;60848;53.884;11.446;2022-12-07T09:50:05;11.63;;;5.45;;
28904;SDS011;60848;53.884;11.446;2022-12-07T09:52:41;45.92;;;19.63;;
28904;SDS011;60848;53.884;11.446;2022-12-07T09:55:12;27.77;;;11.65;;
28904;SDS011;60848;53.884;11.446;2022-12-07T09:57:42;12.25;;;7.55;;
28904;SDS011;60848;53.884;11.446;2022-12-07T10:00:12;11.57;;;4.50;;
28904;SDS011;60848;53.884;11.446;2022-12-07T10:02:44;13.55;;;7.03;;
28904;SDS011;60848;53.884;11.446;2022-12-07T10:05:19;9.38;;;4.80;;
28904;SDS011;60848;53.884;11.446;2022-12-07T10:07:51;8.77;;;3.92;;
28904;SDS011;60848;53.884;11.446;2022-12-07T10:10:22;7.32;;;3.50;;
28904;SDS011;60848;53.884;11.446;2022-12-07T10:12:56;10.27;;;3.25;;
28904;SDS011;60848;53.884;11.446;2022-12-07T10:15:40;9.10;;;3.45;;
28904;SDS011;60848;53.884;11.446;2022-12-07T10:21:05;14.25;;;7.22;;
28904;SDS011;60848;53.884;11.446;2022-12-07T13:13:30;3.70;;;0.90;;
28904;SDS011;60848;53.884;11.446;2022-12-07T13:22:36;1.75;;;0.50;;
28904;SDS011;60848;53.884;11.446;2022-12-07T13:25:12;3.53;;;0.82;;
28904;SDS011;60848;53.884;11.446;2022-12-07T13:30:19;2.05;;;0.43;;
28904;SDS011;60848;53.884;11.446;2022-12-07T13:32:53;1.65;;;0.60;;
28904;SDS011;60848;53.884;11.446;2022-12-07T13:35:30;2.22;;;0.40;;
28904;SDS011;60848;53.884;11.446;2022-12-07T13:38:04;1.30;;;0.60;;
28904;SDS011;60848;53.884;11.446;2022-12-07T13:40:58;2.20;;;0.55;;
28904;SDS011;60848;53.884;11.446;2022-12-07T16:49:34;2.85;;;0.77;;
28904;SDS011;60848;53.884;11.446;2022-12-07T16:52:03;4.82;;;0.90;;
28904;SDS011;60848;53.884;11.446;2022-12-07T16:54:46;3.47;;;1.27;;
28904;SDS011;60848;53.884;11.446;2022-12-07T16:57:15;4.68;;;1.40;;
28904;SDS011;60848;53.884;11.446;2022-12-07T16:59:50;4.68;;;1.30;;
28904;SDS011;60848;53.884;11.446;2022-12-07T17:02:19;2.70;;;1.10;;
28904;SDS011;60848;53.884;11.446;2022-12-07T17:04:48;1.45;;;0.90;;
28904;SDS011;60848;53.884;11.446;2022-12-07T17:07:16;2.50;;;0.65;;
28904;SDS011;60848;53.884;11.446;2022-12-07T17:09:44;4.78;;;1.13;;
28904;SDS011;60848;53.884;11.446;2022-12-07T17:12:13;2.85;;;1.25;;
28904;SDS011;60848;53.884;11.446;2022-12-07T17:14:41;3.33;;;1.00;;
28904;SDS011;60848;53.884;11.446;2022-12-07T17:17:29;18.58;;;9.45;;
28904;SDS011;60848;53.884;11.446;2022-12-07T17:19:57;17.77;;;8.68;;
28904;SDS011;60848;53.884;11.446;2022-12-07T17:22:26;11.93;;;5.97;;
28904;SDS011;60848;53.884;11.446;2022-12-07T17:24:54;4.78;;;2.20;;
28904;SDS011;60848;53.884;11.446;2022-12-07T17:27:22;3.08;;;1.15;;
28904;SDS011;60848;53.884;11.446;2022-12-07T17:29:51;3.35;;;1.10;;
28904;SDS011;60848;53.884;11.446;2022-12-07T17:32:19;5.18;;;2.35;;
28904;SDS011;60848;53.884;11.446;2022-12-07T17:34:49;4.43;;;1.50;;
28904;SDS011;60848;53.884;11.446;2022-12-07T17:37:17;2.97;;;1.20;;
28904;SDS011;60848;53.884;11.446;2022-12-07T17:39:46;3.75;;;1.30;;
28904;SDS011;60848;53.884;11.446;2022-12-07T17:42:14;4.63;;;1.30;;
28904;SDS011;60848;53.884;11.446;2022-12-07T17:45:00;2.47;;;1.17;;
28904;SDS011;60848;53.884;11.446;2022-12-07T17:47:28;3.43;;;1.03;;
28904;SDS011;60848;53.884;11.446;2022-12-07T17:50:01;4.17;;;1.30;;
28904;SDS011;60848;53.884;11.446;2022-12-07T17:52:33;4.68;;;1.88;;
28904;SDS011;60848;53.884;11.446;2022-12-07T17:55:22;3.95;;;1.70;;
28904;SDS011;60848;53.884;11.446;2022-12-07T17:57:50;3.40;;;1.35;;
28904;SDS011;60848;53.884;11.446;2022-12-07T18:00:21;3.13;;;1.40;;
28904;SDS011;60848;53.884;11.446;2022-12-07T18:02:50;4.18;;;1.67;;
28904;SDS011;60848;53.884;11.446;2022-12-07T18:05:19;3.33;;;1.67;;
28904;SDS011;60848;53.884;11.446;2022-12-07T18:07:48;4.05;;;1.58;;
28904;SDS011;60848;53.884;11.446;2022-12-07T18:10:18;3.85;;;1.17;;
28904;SDS011;60848;53.884;11.446;2022-12-07T18:12:46;2.80;;;1.13;;
28904;SDS011;60848;53.884;11.446;2022-12-07T18:15:17;2.38;;;1.20;;
28904;SDS011;60848;53.884;11.446;2022-12-07T18:17:48;4.05;;;1.30;;
28904;SDS011;60848;53.884;11.446;2022-12-07T18:20:17;4.03;;;1.25;;
28904;SDS011;60848;53.884;11.446;2022-12-07T18:22:47;3.35;;;1.10;;
28904;SDS011;60848;53.884;11.446;2022-12-07T18:25:15;2.92;;;1.17;;
28904;SDS011;60848;53.884;11.446;2022-12-07T18:27:44;3.35;;;1.35;;
28904;SDS011;60848;53.884;11.446;2022-12-07T18:30:13;8.40;;;4.00;;
28904;SDS011;60848;53.884;11.446;2022-12-07T18:32:41;17.20;;;10.10;;
28904;SDS011;60848;53.884;11.446;2022-12-07T18:35:09;3.55;;;1.60;;
28904;SDS011;60848;53.884;11.446;2022-12-07T18:37:39;2.60;;;1.10;;
28904;SDS011;60848;53.884;11.446;2022-12-07T18:40:10;3.72;;;1.20;;
28904;SDS011;60848;53.884;11.446;2022-12-07T18:42:39;4.68;;;1.30;;
28904;SDS011;60848;53.884;11.446;2022-12-07T18:45:07;5.75;;;2.15;;
28904;SDS011;60848;53.884;11.446;2022-12-07T18:47:36;2.53;;;1.27;;
28904;SDS011;60848;53.884;11.446;2022-12-07T18:50:05;3.25;;;1.35;;
28904;SDS011;60848;53.884;11.446;2022-12-07T18:52:34;4.90;;;1.30;;
28904;SDS011;60848;53.884;11.446;2022-12-07T18:55:02;3.42;;;1.27;;
28904;SDS011;60848;53.884;11.446;2022-12-07T18:57:33;3.83;;;1.40;;
28904;SDS011;60848;53.884;11.446;2022-12-07T19:00:04;2.55;;;1.30;;
28904;SDS011;60848;53.884;11.446;2022-12-07T19:02:33;4.75;;;1.60;;
28904;SDS011;60848;53.884;11.446;2022-12-07T19:05:02;3.75;;;1.38;;
28904;SDS011;60848;53.884;11.446;2022-12-07T19:07:31;4.15;;;2.05;;
28904;SDS011;60848;53.884;11.446;2022-12-07T19:10:01;25.38;;;14.60;;
28904;SDS011;60848;53.884;11.446;2022-12-07T19:12:33;12.48;;;6.35;;
28904;SDS011;60848;53.884;11.446;2022-12-07T19:15:04;14.23;;;8.07;;
28904;SDS011;60848;53.884;11.446;2022-12-07T19:17:34;6.63;;;2.90;;
28904;SDS011;60848;53.884;11.446;2022-12-07T19:20:04;4.30;;;1.52;;
28904;SDS011;60848;53.884;11.446;2022-12-07T19:22:34;3.15;;;1.30;;
28904;SDS011;60848;53.884;11.446;2022-12-07T19:25:02;3.63;;;1.20;;
28904;SDS011;60848;53.884;11.446;2022-12-07T19:27:33;3.50;;;1.30;;
28904;SDS011;60848;53.884;11.446;2022-12-07T19:30:04;2.28;;;1.10;;
28904;SDS011;60848;53.884;11.446;2022-12-07T19:32:35;3.72;;;1.40;;
28904;SDS011;60848;53.884;11.446;2022-12-07T19:35:06;3.42;;;1.40;;
28904;SDS011;60848;53.884;11.446;2022-12-07T19:37:36;4.40;;;1.40;;
28904;SDS011;60848;53.884;11.446;2022-12-07T19:40:05;3.58;;;1.50;;
28904;SDS011;60848;53.884;11.446;2022-12-07T19:42:35;4.70;;;1.40;;
28904;SDS011;60848;53.884;11.446;2022-12-07T19:45:04;4.60;;;1.30;;
28904;SDS011;60848;53.884;11.446;2022-12-07T19:47:33;4.88;;;1.50;;
28904;SDS011;60848;53.884;11.446;2022-12-07T19:50:01;4.07;;;1.27;;
28904;SDS011;60848;53.884;11.446;2022-12-07T19:52:30;3.42;;;1.30;;
28904;SDS011;60848;53.884;11.446;2022-12-07T19:55:02;4.28;;;1.48;;
28904;SDS011;60848;53.884;11.446;2022-12-07T19:57:33;4.53;;;1.70;;
28904;SDS011;60848;53.884;11.446;2022-12-07T20:00:04;3.28;;;1.65;;
28904;SDS011;60848;53.884;11.446;2022-12-07T20:02:33;9.87;;;5.73;;
28904;SDS011;60848;53.884;11.446;2022-12-07T20:05:03;6.47;;;3.45;;
28904;SDS011;60848;53.884;11.446;2022-12-07T20:07:32;5.47;;;2.30;;
28904;SDS011;60848;53.884;11.446;2022-12-07T20:10:07;5.73;;;2.70;;
28904;SDS011;60848;53.884;11.446;2022-12-07T20:12:37;6.65;;;3.15;;
28904;SDS011;60848;53.884;11.446;2022-12-07T20:15:25;8.00;;;3.10;;
28904;SDS011;60848;53.884;11.446;2022-12-07T20:17:54;6.85;;;2.55;;
28904;SDS011;60848;53.884;11.446;2022-12-07T20:20:22;6.32;;;2.33;;
28904;SDS011;60848;53.884;11.446;2022-12-07T20:22:50;37.58;;;20.45;;
28904;SDS011;60848;53.884;11.446;2022-12-07T20:30:16;3.65;;;1.77;;
28904;SDS011;60848;53.884;11.446;2022-12-07T20:32:45;1.98;;;1.42;;
28904;SDS011;60848;53.884;11.446;2022-12-07T20:35:13;3.10;;;1.38;;
28904;SDS011;60848;53.884;11.446;2022-12-07T20:37:42;5.07;;;2.20;;
28904;SDS011;60848;53.884;11.446;2022-12-07T20:40:10;5.15;;;2.00;;
28904;SDS011;60848;53.884;11.446;2022-12-07T20:42:39;3.80;;;1.33;;
28904;SDS011;60848;53.884;11.446;2022-12-07T20:45:08;4.28;;;1.65;;
28904;SDS011;60848;53.884;11.446;2022-12-07T20:47:37;3.30;;;1.88;;
28904;SDS011;60848;53.884;11.446;2022-12-07T20:50:08;7.65;;;2.88;;
28904;SDS011;60848;53.884;11.446;2022-12-07T20:52:37;4.85;;;3.03;;
28904;SDS011;60848;53.884;11.446;2022-12-07T20:55:06;8.55;;;2.63;;
28904;SDS011;60848;53.884;11.446;2022-12-07T20:57:35;5.60;;;1.90;;
28904;SDS011;60848;53.884;11.446;2022-12-07T21:00:06;4.88;;;2.25;;
28904;SDS011;60848;53.884;11.446;2022-12-07T21:02:39;3.95;;;2.25;;
28904;SDS011;60848;53.884;11.446;2022-12-07T21:05:08;3.90;;;2.17;;
28904;SDS011;60848;53.884;11.446;2022-12-07T21:07:36;4.25;;;2.03;;
28904;SDS011;60848;53.884;11.446;2022-12-07T21:10:05;7.22;;;2.30;;
28904;SDS011;60848;53.884;11.446;2022-12-07T21:12:34;5.53;;;1.92;;
28904;SDS011;60848;53.884;11.446;2022-12-07T21:15:03;5.75;;;2.25;;
28904;SDS011;60848;53.884;11.446;2022-12-07T21:17:34;6.88;;;2.38;;
28904;SDS011;60848;53.884;11.446;2022-12-07T21:20:02;5.03;;;2.30;;
28904;SDS011;60848;53.884;11.446;2022-12-07T21:25:03;4.68;;;2.50;;
28904;SDS011;60848;53.884;11.446;2022-12-07T21:27:32;6.70;;;2.17;;
28904;SDS011;60848;53.884;11.446;2022-12-07T21:30:01;3.97;;;2.03;;
28904;SDS011;60848;53.884;11.446;2022-12-07T21:32:29;4.93;;;2.35;;
28904;SDS011;60848;53.884;11.446;2022-12-07T21:34:59;6.63;;;2.17;;
28904;SDS011;60848;53.884;11.446;2022-12-07T21:37:28;3.85;;;1.80;;
28904;SDS011;60848;53.884;11.446;2022-12-07T21:39:59;3.30;;;1.80;;
28904;SDS011;60848;53.884;11.446;2022-12-07T21:42:27;3.25;;;1.60;;
28904;SDS011;60848;53.884;11.446;2022-12-07T21:44:55;4.32;;;2.03;;
28904;SDS011;60848;53.884;11.446;2022-12-07T21:47:24;4.30;;;2.13;;
28904;SDS011;60848;53.884;11.446;2022-12-07T21:49:52;5.63;;;2.10;;
28904;SDS011;60848;53.884;11.446;2022-12-07T21:52:22;4.40;;;1.83;;
28904;SDS011;60848;53.884;11.446;2022-12-07T21:54:52;3.97;;;1.77;;
28904;SDS011;60848;53.884;11.446;2022-12-07T21:57:21;4.05;;;2.22;;
28904;SDS011;60848;53.884;11.446;2022-12-07T21:59:49;3.78;;;1.98;;
28904;SDS011;60848;53.884;11.446;2022-12-07T22:02:17;7.10;;;2.40;;
28904;SDS011;60848;53.884;11.446;2022-12-07T22:04:48;7.80;;;2.05;;
28904;SDS011;60848;53.884;11.446;2022-12-07T22:07:19;6.67;;;2.30;;
28904;SDS011;60848;53.884;11.446;2022-12-07T22:09:49;4.28;;;1.98;;
28904;SDS011;60848;53.884;11.446;2022-12-07T22:12:19;4.70;;;1.75;;
28904;SDS011;60848;53.884;11.446;2022-12-07T22:14:50;4.45;;;2.25;;
28904;SDS011;60848;53.884;11.446;2022-12-07T22:17:35;3.38;;;1.58;;
28904;SDS011;60848;53.884;11.446;2022-12-07T22:20:04;5.55;;;1.88;;
28904;SDS011;60848;53.884;11.446;2022-12-07T22:22:33;5.63;;;1.92;;
28904;SDS011;60848;53.884;11.446;2022-12-07T22:25:03;4.60;;;1.63;;
28904;SDS011;60848;53.884;11.446;2022-12-07T22:27:33;5.57;;;2.65;;
28904;SDS011;60848;53.884;11.446;2022-12-07T22:30:04;5.68;;;2.72;;
28904;SDS011;60848;53.884;11.446;2022-12-07T22:32:33;5.30;;;2.20;;
28904;SDS011;60848;53.884;11.446;2022-12-07T22:35:17;4.75;;;1.88;;
28904;SDS011;60848;53.884;11.446;2022-12-07T22:37:45;5.95;;;1.70;;
28904;SDS011;60848;53.884;11.446;2022-12-07T22:40:15;4.70;;;1.95;;
28904;SDS011;60848;53.884;11.446;2022-12-07T22:42:44;5.90;;;1.83;;
28904;SDS011;60848;53.884;11.446;2022-12-07T23:25:09;3.33;;;1.50;;
28904;SDS011;60848;53.884;11.446;2022-12-07T23:27:37;4.65;;;2.20;;
28904;SDS011;60848;53.884;11.446;2022-12-07T23:30:06;5.00;;;2.35;;
28904;SDS011;60848;53.884;11.446;2022-12-07T23:32:36;3.67;;;2.05;;
28904;SDS011;60848;53.884;11.446;2022-12-07T23:35:06;5.05;;;2.10;;
28904;SDS011;60848;53.884;11.446;2022-12-07T23:37:35;6.38;;;1.70;;
28904;SDS011;60848;53.884;11.446;2022-12-07T23:40:04;6.63;;;1.45;;
28904;SDS011;60848;53.884;11.446;2022-12-07T23:42:33;4.05;;;1.67;;
28904;SDS011;60848;53.884;11.446;2022-12-07T23:45:02;3.10;;;1.42;;
28904;SDS011;60848;53.884;11.446;2022-12-07T23:47:31;3.30;;;1.80;;
28904;SDS011;60848;53.884;11.446;2022-12-07T23:50:00;8.02;;;2.38;;
28904;SDS011;60848;53.884;11.446;2022-12-07T23:52:29;6.05;;;2.40;;
28904;SDS011;60848;53.884;11.446;2022-12-07T23:54:58;3.58;;;2.03;;
28904;SDS011;60848;53.884;11.446;2022-12-07T23:57:27;10.63;;;2.60;;
28904;SDS011;60848;53.884;11.446;2022-12-07T23:59:55;4.05;;;1.92;;
